University Park Airport
KUNV : now visible

Airfield :











YOU CAN JOIN US ON...

 
LOGIN :

Register | Disclaimer

   EN    FR    IT 

 









Legend :    VFR   Marginal VFR   IFR   Intensive IFR   Very Intensive IFR
Visi :
Ceiling :
>= 8 km
>= 3000ft
5 to 8 km
1000 to 3000 ft
1500m to 5 km
500 to 1000 ft
800 to 1500m
200 to 500 ft
< 800m
< 200 ft
Symbols :   Thunderstorms  Fog  Heavy snow  Heavy precipitations  Wind > 20 kt






- Airport Elevation : 1239 ft


KUNV - University Park

CURRENT METAR :
  • 110953Z 00000KT 10SM SKC 18/16 A2997

EXPIRED METARs :
  • 110855Z AUTO 00000KT 10SM SCT070 SCT080 19/16 A2996 RMK AO2 T01910155
  • 110835Z AUTO 00000KT 10SM SCT080 SCT090 20/15 A2996 RMK AO2 T02030152
  • 110815Z AUTO 00000KT 10SM CLR 21/15 A2997 RMK AO2 T02100150
  • 110755Z AUTO 29006KT 10SM CLR 22/16 A2997 RMK AO2 T02180158
  • 110735Z AUTO 00000KT 10SM CLR 22/16 A2996 RMK AO2 T02170155

TAF KUNV
Valid from the 11 at 10:00 until the 12 at 06:00 UTC


110938Z 1110/1206 00000KT P6SM SCT250
FM111500 23007KT P6SM SCT050
FM111800 23007KT P6SM VCTS BKN050CB
FM120000 24003KT P6SM -SHRA OVC050
KZNY FIR / North America



MET'MAP, your aeronautical weather chart ! - Copyright ORBIFLY December 2007 - Disclaimer

ORBIFLY MET'MAP TEAM :

Programming & Development : Alexandra Zaïnal
Concept & original design : Baudouin d'Aumeries
Assistance for programming : Marc-Olivier Méhu
Technical & hardware support : Manuel Goepfert

Contact : metmap@orbifly.com




SOURCES & CREDITS :

   NOAA       Earth
Advisory